Airfield :
LOGIN :

Register | Disclaimer

   EN    FR    IT 

 










Legend :    VFR   Marginal VFR   IFR   Intensive IFR   Very Intensive IFR
Visi :
Ceiling :
>= 8 km
>= 3000ft
5 to 8 km
1000 to 3000 ft
1500m to 5 km
500 to 1000 ft
800 to 1500m
200 to 500 ft
< 800m
< 200 ft
Symbols :   Thunderstorms  Fog  Heavy snow  Heavy precipitations  Wind > 20 kt
SIGMETs :     Misc.  Thunderstorms  Icing  Turbulence  Mountain Waves  Volcanic Ashes







- Airport Elevation : 622 ft
- IATA code : BRS
- Download approach charts


EGGD - Bristol Int.

CURRENT METAR :
  • 191820Z AUTO 07004KT 9999 NCD 15/09 Q1029

EXPIRED METARs :
  • 191750Z AUTO 08004KT 9999 NCD 16/10 Q1029
  • 191720Z AUTO 36004KT 320V040 9999 NCD 18/10 Q1029
  • 191650Z AUTO 35005KT 9999 NCD 18/10 Q1029
  • 191620Z AUTO 36006KT 9999 NCD 19/10 Q1029
  • 191550Z AUTO 02004KT 330V060 9999 NCD 19/10 Q1029

TAF TAF EGGD
Valid from the 19 at 18:00 until the 20 at 18:00 UTC


191703Z 1918/2018 08005KT 9999 FEW045
PROB40 2002/2008 7000
ATIS : +44 1275 473 666
No reported NOTAMs for that airfield.



MET'MAP, your aeronautical weather chart ! - Copyright ORBIFLY December 2007 - Disclaimer

ORBIFLY MET'MAP TEAM :

Programming & Development : Alexandra Zaïnal
Concept & Development : Baudouin d'Aumeries
Co-Development & Prog : Marc-Olivier Méhu
Technical & hardware support : Manuel Goepfert

Contact : metmap@orbifly.com




SOURCES & CREDITS :

   NOAA